sensor_id;sensor_type;location;lat;lon;timestamp;P1;durP1;ratioP1;P2;durP2;ratioP2
18473;SDS011;30265;52.408;13.500;2022-11-20T00:09:46;23.75;;;9.32;;
18473;SDS011;30265;52.408;13.500;2022-11-20T00:20:09;24.63;;;9.85;;
18473;SDS011;30265;52.408;13.500;2022-11-20T00:30:33;27.88;;;8.43;;
18473;SDS011;30265;52.408;13.500;2022-11-20T00:40:56;28.83;;;11.65;;
18473;SDS011;30265;52.408;13.500;2022-11-20T00:51:21;23.27;;;9.20;;
18473;SDS011;30265;52.408;13.500;2022-11-20T01:01:44;24.50;;;9.38;;
18473;SDS011;30265;52.408;13.500;2022-11-20T01:12:08;25.60;;;9.57;;
18473;SDS011;30265;52.408;13.500;2022-11-20T01:22:30;26.73;;;10.65;;
18473;SDS011;30265;52.408;13.500;2022-11-20T01:32:53;30.42;;;9.52;;
18473;SDS011;30265;52.408;13.500;2022-11-20T01:43:17;26.35;;;11.00;;
18473;SDS011;30265;52.408;13.500;2022-11-20T01:53:44;28.00;;;10.23;;
18473;SDS011;30265;52.408;13.500;2022-11-20T02:04:08;41.05;;;11.02;;
18473;SDS011;30265;52.408;13.500;2022-11-20T02:14:32;34.42;;;12.95;;
18473;SDS011;30265;52.408;13.500;2022-11-20T02:24:56;20.42;;;9.68;;
18473;SDS011;30265;52.408;13.500;2022-11-20T02:46:16;27.90;;;9.73;;
18473;SDS011;30265;52.408;13.500;2022-11-20T02:56:37;32.45;;;13.27;;
18473;SDS011;30265;52.408;13.500;2022-11-20T03:07:00;41.83;;;13.60;;
18473;SDS011;30265;52.408;13.500;2022-11-20T03:17:22;32.97;;;11.65;;
18473;SDS011;30265;52.408;13.500;2022-11-20T03:27:46;47.15;;;13.35;;
18473;SDS011;30265;52.408;13.500;2022-11-20T03:38:08;21.20;;;9.13;;
18473;SDS011;30265;52.408;13.500;2022-11-20T03:48:31;41.53;;;14.10;;
18473;SDS011;30265;52.408;13.500;2022-11-20T03:58:53;35.65;;;13.55;;
18473;SDS011;30265;52.408;13.500;2022-11-20T04:09:17;46.05;;;11.98;;
18473;SDS011;30265;52.408;13.500;2022-11-20T04:19:39;40.13;;;15.57;;
18473;SDS011;30265;52.408;13.500;2022-11-20T04:30:02;31.52;;;12.57;;
18473;SDS011;30265;52.408;13.500;2022-11-20T04:40:25;17.77;;;8.10;;
18473;SDS011;30265;52.408;13.500;2022-11-20T04:50:49;24.65;;;11.32;;
18473;SDS011;30265;52.408;13.500;2022-11-20T05:01:12;36.72;;;12.55;;
18473;SDS011;30265;52.408;13.500;2022-11-20T05:11:36;25.30;;;12.02;;
18473;SDS011;30265;52.408;13.500;2022-11-20T05:21:57;28.63;;;12.88;;
18473;SDS011;30265;52.408;13.500;2022-11-20T05:32:20;29.88;;;9.02;;
18473;SDS011;30265;52.408;13.500;2022-11-20T05:42:45;35.38;;;12.68;;
18473;SDS011;30265;52.408;13.500;2022-11-20T05:53:08;36.70;;;9.90;;
18473;SDS011;30265;52.408;13.500;2022-11-20T06:03:30;29.02;;;11.10;;
18473;SDS011;30265;52.408;13.500;2022-11-20T06:13:53;30.17;;;11.65;;
18473;SDS011;30265;52.408;13.500;2022-11-20T06:24:15;39.13;;;13.25;;
18473;SDS011;30265;52.408;13.500;2022-11-20T06:34:38;33.72;;;12.23;;
18473;SDS011;30265;52.408;13.500;2022-11-20T06:45:00;21.80;;;11.95;;
18473;SDS011;30265;52.408;13.500;2022-11-20T06:55:23;29.73;;;11.70;;
18473;SDS011;30265;52.408;13.500;2022-11-20T07:05:45;29.27;;;13.85;;
18473;SDS011;30265;52.408;13.500;2022-11-20T07:16:08;30.50;;;11.20;;
18473;SDS011;30265;52.408;13.500;2022-11-20T07:26:30;41.75;;;12.85;;
18473;SDS011;30265;52.408;13.500;2022-11-20T07:36:53;28.73;;;12.55;;
18473;SDS011;30265;52.408;13.500;2022-11-20T07:47:15;42.25;;;13.43;;
18473;SDS011;30265;52.408;13.500;2022-11-20T07:57:37;26.73;;;11.65;;
18473;SDS011;30265;52.408;13.500;2022-11-20T08:07:59;41.28;;;13.93;;
18473;SDS011;30265;52.408;13.500;2022-11-20T08:18:22;36.67;;;13.18;;
18473;SDS011;30265;52.408;13.500;2022-11-20T08:28:53;40.10;;;14.93;;
18473;SDS011;30265;52.408;13.500;2022-11-20T08:39:16;45.97;;;15.38;;
18473;SDS011;30265;52.408;13.500;2022-11-20T08:49:39;34.22;;;12.57;;
18473;SDS011;30265;52.408;13.500;2022-11-20T09:00:02;32.05;;;10.95;;
18473;SDS011;30265;52.408;13.500;2022-11-20T09:10:26;41.30;;;17.00;;
18473;SDS011;30265;52.408;13.500;2022-11-20T09:20:50;29.80;;;12.40;;
18473;SDS011;30265;52.408;13.500;2022-11-20T09:31:15;54.63;;;18.23;;
18473;SDS011;30265;52.408;13.500;2022-11-20T09:41:49;42.50;;;17.80;;
18473;SDS011;30265;52.408;13.500;2022-11-20T09:52:20;30.38;;;13.75;;
18473;SDS011;30265;52.408;13.500;2022-11-20T10:02:58;38.97;;;15.23;;
18473;SDS011;30265;52.408;13.500;2022-11-20T10:13:34;41.88;;;14.60;;
18473;SDS011;30265;52.408;13.500;2022-11-20T10:24:19;38.30;;;13.75;;
18473;SDS011;30265;52.408;13.500;2022-11-20T10:34:54;20.38;;;9.70;;
18473;SDS011;30265;52.408;13.500;2022-11-20T10:45:30;41.40;;;15.18;;
18473;SDS011;30265;52.408;13.500;2022-11-20T10:56:04;26.83;;;11.65;;
18473;SDS011;30265;52.408;13.500;2022-11-20T11:06:31;42.75;;;12.88;;
18473;SDS011;30265;52.408;13.500;2022-11-20T11:16:57;38.05;;;16.95;;
18473;SDS011;30265;52.408;13.500;2022-11-20T11:27:21;53.03;;;16.15;;
18473;SDS011;30265;52.408;13.500;2022-11-20T11:37:42;32.30;;;15.30;;
18473;SDS011;30265;52.408;13.500;2022-11-20T11:48:05;29.92;;;13.65;;
18473;SDS011;30265;52.408;13.500;2022-11-20T11:58:34;43.33;;;15.67;;
18473;SDS011;30265;52.408;13.500;2022-11-20T12:09:08;31.48;;;12.10;;
18473;SDS011;30265;52.408;13.500;2022-11-20T12:19:33;34.95;;;16.65;;
18473;SDS011;30265;52.408;13.500;2022-11-20T12:29:58;30.63;;;11.30;;
18473;SDS011;30265;52.408;13.500;2022-11-20T12:40:27;28.08;;;11.82;;
18473;SDS011;30265;52.408;13.500;2022-11-20T12:51:02;27.90;;;10.93;;
18473;SDS011;30265;52.408;13.500;2022-11-20T13:01:42;21.37;;;6.53;;
18473;SDS011;30265;52.408;13.500;2022-11-20T13:12:13;19.92;;;9.80;;
18473;SDS011;30265;52.408;13.500;2022-11-20T13:22:44;19.02;;;7.60;;
18473;SDS011;30265;52.408;13.500;2022-11-20T13:33:09;16.87;;;7.93;;
18473;SDS011;30265;52.408;13.500;2022-11-20T13:43:46;12.45;;;6.50;;
18473;SDS011;30265;52.408;13.500;2022-11-20T13:54:37;14.85;;;6.82;;
18473;SDS011;30265;52.408;13.500;2022-11-20T14:05:17;22.55;;;8.68;;
18473;SDS011;30265;52.408;13.500;2022-11-20T14:15:44;23.33;;;6.95;;
18473;SDS011;30265;52.408;13.500;2022-11-20T14:26:06;26.17;;;10.50;;
18473;SDS011;30265;52.408;13.500;2022-11-20T14:36:30;29.60;;;9.52;;
18473;SDS011;30265;52.408;13.500;2022-11-20T14:46:52;36.05;;;11.25;;
18473;SDS011;30265;52.408;13.500;2022-11-20T14:57:23;20.15;;;8.73;;
18473;SDS011;30265;52.408;13.500;2022-11-20T15:07:48;20.15;;;8.48;;
18473;SDS011;30265;52.408;13.500;2022-11-20T15:18:16;22.98;;;10.23;;
18473;SDS011;30265;52.408;13.500;2022-11-20T15:28:40;29.17;;;9.55;;
18473;SDS011;30265;52.408;13.500;2022-11-20T15:39:04;20.77;;;9.30;;
18473;SDS011;30265;52.408;13.500;2022-11-20T15:49:27;20.85;;;8.82;;
18473;SDS011;30265;52.408;13.500;2022-11-20T15:59:50;15.18;;;6.78;;
18473;SDS011;30265;52.408;13.500;2022-11-20T16:10:12;21.80;;;7.68;;
18473;SDS011;30265;52.408;13.500;2022-11-20T16:20:35;25.05;;;9.68;;
18473;SDS011;30265;52.408;13.500;2022-11-20T16:30:57;31.35;;;10.35;;
18473;SDS011;30265;52.408;13.500;2022-11-20T16:41:32;22.13;;;7.85;;
18473;SDS011;30265;52.408;13.500;2022-11-20T16:51:55;29.33;;;10.10;;
18473;SDS011;30265;52.408;13.500;2022-11-20T17:02:18;21.95;;;7.88;;
18473;SDS011;30265;52.408;13.500;2022-11-20T17:12:40;16.38;;;5.43;;
18473;SDS011;30265;52.408;13.500;2022-11-20T17:23:05;22.40;;;9.68;;
18473;SDS011;30265;52.408;13.500;2022-11-20T17:33:27;15.73;;;6.80;;
18473;SDS011;30265;52.408;13.500;2022-11-20T17:43:53;21.13;;;7.95;;
18473;SDS011;30265;52.408;13.500;2022-11-20T17:54:16;30.67;;;11.20;;
18473;SDS011;30265;52.408;13.500;2022-11-20T18:04:40;31.90;;;11.02;;
18473;SDS011;30265;52.408;13.500;2022-11-20T18:15:04;18.08;;;7.68;;
18473;SDS011;30265;52.408;13.500;2022-11-20T18:25:28;18.15;;;8.23;;
18473;SDS011;30265;52.408;13.500;2022-11-20T18:35:49;29.75;;;8.63;;
18473;SDS011;30265;52.408;13.500;2022-11-20T18:46:13;16.55;;;8.50;;
18473;SDS011;30265;52.408;13.500;2022-11-20T18:56:35;23.40;;;9.68;;
18473;SDS011;30265;52.408;13.500;2022-11-20T19:06:59;20.98;;;9.32;;
18473;SDS011;30265;52.408;13.500;2022-11-20T19:17:22;32.30;;;10.23;;
18473;SDS011;30265;52.408;13.500;2022-11-20T19:27:47;39.90;;;11.70;;
18473;SDS011;30265;52.408;13.500;2022-11-20T19:38:09;25.13;;;9.18;;
18473;SDS011;30265;52.408;13.500;2022-11-20T19:48:33;40.53;;;14.45;;
18473;SDS011;30265;52.408;13.500;2022-11-20T19:58:57;36.37;;;14.33;;
18473;SDS011;30265;52.408;13.500;2022-11-20T20:09:23;38.03;;;15.68;;
18473;SDS011;30265;52.408;13.500;2022-11-20T20:30:12;31.45;;;14.38;;
18473;SDS011;30265;52.408;13.500;2022-11-20T20:40:37;44.00;;;13.93;;
18473;SDS011;30265;52.408;13.500;2022-11-20T20:51:01;51.67;;;16.95;;
18473;SDS011;30265;52.408;13.500;2022-11-20T21:01:29;41.38;;;15.85;;
18473;SDS011;30265;52.408;13.500;2022-11-20T21:11:52;31.55;;;12.93;;
18473;SDS011;30265;52.408;13.500;2022-11-20T21:22:13;39.85;;;14.30;;
18473;SDS011;30265;52.408;13.500;2022-11-20T21:32:36;40.83;;;13.43;;
18473;SDS011;30265;52.408;13.500;2022-11-20T21:42:58;28.08;;;11.90;;
18473;SDS011;30265;52.408;13.500;2022-11-20T21:53:21;39.60;;;13.50;;
18473;SDS011;30265;52.408;13.500;2022-11-20T22:03:46;43.70;;;16.70;;
18473;SDS011;30265;52.408;13.500;2022-11-20T22:14:10;36.15;;;12.02;;
18473;SDS011;30265;52.408;13.500;2022-11-20T22:24:41;17.08;;;8.38;;
18473;SDS011;30265;52.408;13.500;2022-11-20T22:35:04;30.20;;;11.88;;
18473;SDS011;30265;52.408;13.500;2022-11-20T22:45:26;36.25;;;12.90;;
18473;SDS011;30265;52.408;13.500;2022-11-20T22:55:50;34.92;;;12.32;;
18473;SDS011;30265;52.408;13.500;2022-11-20T23:06:12;23.38;;;9.05;;
18473;SDS011;30265;52.408;13.500;2022-11-20T23:16:36;31.33;;;11.90;;
18473;SDS011;30265;52.408;13.500;2022-11-20T23:26:58;34.67;;;13.68;;
18473;SDS011;30265;52.408;13.500;2022-11-20T23:37:21;50.53;;;15.57;;
18473;SDS011;30265;52.408;13.500;2022-11-20T23:47:43;45.58;;;15.20;;
18473;SDS011;30265;52.408;13.500;2022-11-20T23:58:06;38.05;;;13.73;;
